sensor_id;sensor_type;location;lat;lon;timestamp;temperature;humidity
13976;DHT22;7062;49.792;9.946;2023-05-10T00:00:39;16.50;99.90
13976;DHT22;7062;49.792;9.946;2023-05-10T00:03:04;16.40;99.90
13976;DHT22;7062;49.792;9.946;2023-05-10T00:05:31;16.50;99.90
13976;DHT22;7062;49.792;9.946;2023-05-10T00:07:56;16.50;99.90
13976;DHT22;7062;49.792;9.946;2023-05-10T00:10:22;16.50;99.90
13976;DHT22;7062;49.792;9.946;2023-05-10T00:12:48;16.50;99.90
13976;DHT22;7062;49.792;9.946;2023-05-10T00:15:13;16.40;99.90
13976;DHT22;7062;49.792;9.946;2023-05-10T00:17:39;16.50;99.90
13976;DHT22;7062;49.792;9.946;2023-05-10T00:20:05;16.60;99.90
13976;DHT22;7062;49.792;9.946;2023-05-10T00:22:32;16.60;99.90
13976;DHT22;7062;49.792;9.946;2023-05-10T00:24:58;16.70;99.90
13976;DHT22;7062;49.792;9.946;2023-05-10T00:27:24;16.70;99.90
13976;DHT22;7062;49.792;9.946;2023-05-10T00:29:49;16.50;99.90
13976;DHT22;7062;49.792;9.946;2023-05-10T00:32:15;16.50;99.90
13976;DHT22;7062;49.792;9.946;2023-05-10T00:34:41;16.50;99.90
13976;DHT22;7062;49.792;9.946;2023-05-10T00:37:07;16.50;99.90
13976;DHT22;7062;49.792;9.946;2023-05-10T00:39:32;16.60;99.90
13976;DHT22;7062;49.792;9.946;2023-05-10T00:41:58;16.60;99.90
13976;DHT22;7062;49.792;9.946;2023-05-10T00:44:24;16.50;99.90
13976;DHT22;7062;49.792;9.946;2023-05-10T00:46:50;16.50;99.90
13976;DHT22;7062;49.792;9.946;2023-05-10T00:49:16;16.60;99.90
13976;DHT22;7062;49.792;9.946;2023-05-10T00:51:42;16.50;99.90
13976;DHT22;7062;49.792;9.946;2023-05-10T00:54:11;16.50;99.90
13976;DHT22;7062;49.792;9.946;2023-05-10T00:56:37;16.30;99.90
13976;DHT22;7062;49.792;9.946;2023-05-10T00:59:03;16.30;99.90
13976;DHT22;7062;49.792;9.946;2023-05-10T01:01:28;16.20;99.90
13976;DHT22;7062;49.792;9.946;2023-05-10T01:03:55;16.20;99.90
13976;DHT22;7062;49.792;9.946;2023-05-10T01:06:22;16.10;99.90
13976;DHT22;7062;49.792;9.946;2023-05-10T01:08:47;16.00;99.90
13976;DHT22;7062;49.792;9.946;2023-05-10T01:11:13;15.90;99.90
13976;DHT22;7062;49.792;9.946;2023-05-10T01:13:41;15.90;99.90
13976;DHT22;7062;49.792;9.946;2023-05-10T01:16:08;16.00;99.90
13976;DHT22;7062;49.792;9.946;2023-05-10T01:18:39;16.20;99.90
13976;DHT22;7062;49.792;9.946;2023-05-10T01:21:27;15.90;99.90
13976;DHT22;7062;49.792;9.946;2023-05-10T01:32:48;15.90;99.90
13976;DHT22;7062;49.792;9.946;2023-05-10T01:41:06;15.80;99.90
13976;DHT22;7062;49.792;9.946;2023-05-10T01:43:46;15.90;99.90
13976;DHT22;7062;49.792;9.946;2023-05-10T01:46:24;15.90;99.90
13976;DHT22;7062;49.792;9.946;2023-05-10T01:48:55;15.80;99.90
13976;DHT22;7062;49.792;9.946;2023-05-10T01:51:27;15.70;99.90
13976;DHT22;7062;49.792;9.946;2023-05-10T01:53:59;15.70;99.90
13976;DHT22;7062;49.792;9.946;2023-05-10T01:56:28;15.70;99.90
13976;DHT22;7062;49.792;9.946;2023-05-10T01:58:55;15.70;99.90
13976;DHT22;7062;49.792;9.946;2023-05-10T02:01:22;15.60;99.90
13976;DHT22;7062;49.792;9.946;2023-05-10T02:03:50;15.50;99.90
13976;DHT22;7062;49.792;9.946;2023-05-10T02:06:18;15.40;99.90
13976;DHT22;7062;49.792;9.946;2023-05-10T02:08:46;15.40;99.90
13976;DHT22;7062;49.792;9.946;2023-05-10T02:11:13;15.40;99.90
13976;DHT22;7062;49.792;9.946;2023-05-10T02:13:39;15.60;99.90
13976;DHT22;7062;49.792;9.946;2023-05-10T02:16:05;15.60;99.90
13976;DHT22;7062;49.792;9.946;2023-05-10T02:18:33;15.50;99.90
13976;DHT22;7062;49.792;9.946;2023-05-10T02:20:59;15.60;99.90
13976;DHT22;7062;49.792;9.946;2023-05-10T02:23:26;15.60;99.90
13976;DHT22;7062;49.792;9.946;2023-05-10T02:25:54;15.50;99.90
13976;DHT22;7062;49.792;9.946;2023-05-10T02:28:21;15.50;99.90
13976;DHT22;7062;49.792;9.946;2023-05-10T02:30:49;15.40;99.90
13976;DHT22;7062;49.792;9.946;2023-05-10T02:33:16;15.40;99.90
13976;DHT22;7062;49.792;9.946;2023-05-10T02:35:42;15.30;99.90
13976;DHT22;7062;49.792;9.946;2023-05-10T02:38:08;15.10;99.90
13976;DHT22;7062;49.792;9.946;2023-05-10T02:40:36;15.00;99.90
13976;DHT22;7062;49.792;9.946;2023-05-10T02:43:04;15.10;99.90
13976;DHT22;7062;49.792;9.946;2023-05-10T02:45:32;15.00;99.90
13976;DHT22;7062;49.792;9.946;2023-05-10T02:47:59;14.90;99.90
13976;DHT22;7062;49.792;9.946;2023-05-10T02:50:30;14.90;99.90
13976;DHT22;7062;49.792;9.946;2023-05-10T02:53:00;14.90;99.90
13976;DHT22;7062;49.792;9.946;2023-05-10T02:55:32;14.90;99.90
13976;DHT22;7062;49.792;9.946;2023-05-10T02:58:02;14.90;99.90
13976;DHT22;7062;49.792;9.946;2023-05-10T03:00:28;14.70;99.90
13976;DHT22;7062;49.792;9.946;2023-05-10T03:02:54;14.60;99.90
13976;DHT22;7062;49.792;9.946;2023-05-10T03:05:21;14.60;99.90
13976;DHT22;7062;49.792;9.946;2023-05-10T03:07:47;14.60;99.90
13976;DHT22;7062;49.792;9.946;2023-05-10T03:10:13;14.40;99.90
13976;DHT22;7062;49.792;9.946;2023-05-10T03:13:11;14.30;99.90
13976;DHT22;7062;49.792;9.946;2023-05-10T03:20:57;14.40;99.90
13976;DHT22;7062;49.792;9.946;2023-05-10T03:23:27;14.40;99.90
13976;DHT22;7062;49.792;9.946;2023-05-10T03:25:55;14.30;99.90
13976;DHT22;7062;49.792;9.946;2023-05-10T03:28:23;14.30;99.90
13976;DHT22;7062;49.792;9.946;2023-05-10T03:30:52;14.30;99.90
13976;DHT22;7062;49.792;9.946;2023-05-10T03:33:18;14.30;99.90
13976;DHT22;7062;49.792;9.946;2023-05-10T03:35:43;14.40;99.90
13976;DHT22;7062;49.792;9.946;2023-05-10T03:38:11;14.40;99.90
13976;DHT22;7062;49.792;9.946;2023-05-10T03:40:37;14.30;99.90
13976;DHT22;7062;49.792;9.946;2023-05-10T03:43:03;14.30;99.90
13976;DHT22;7062;49.792;9.946;2023-05-10T03:45:28;14.30;99.90
13976;DHT22;7062;49.792;9.946;2023-05-10T03:47:54;14.20;99.90
13976;DHT22;7062;49.792;9.946;2023-05-10T03:50:20;14.20;99.90
13976;DHT22;7062;49.792;9.946;2023-05-10T03:52:46;14.20;99.90
13976;DHT22;7062;49.792;9.946;2023-05-10T03:55:11;14.30;99.90
13976;DHT22;7062;49.792;9.946;2023-05-10T03:57:37;14.40;99.90
13976;DHT22;7062;49.792;9.946;2023-05-10T04:00:03;14.30;99.90
13976;DHT22;7062;49.792;9.946;2023-05-10T04:02:29;14.30;99.90
13976;DHT22;7062;49.792;9.946;2023-05-10T04:04:56;14.30;99.90
13976;DHT22;7062;49.792;9.946;2023-05-10T04:07:21;14.40;99.90
13976;DHT22;7062;49.792;9.946;2023-05-10T04:09:47;14.50;99.90
13976;DHT22;7062;49.792;9.946;2023-05-10T04:12:13;14.40;99.90
13976;DHT22;7062;49.792;9.946;2023-05-10T04:14:38;14.40;99.90
13976;DHT22;7062;49.792;9.946;2023-05-10T04:17:04;14.30;99.90
13976;DHT22;7062;49.792;9.946;2023-05-10T04:19:30;14.40;99.90
13976;DHT22;7062;49.792;9.946;2023-05-10T04:21:57;14.40;99.90
13976;DHT22;7062;49.792;9.946;2023-05-10T04:24:23;14.50;99.90
13976;DHT22;7062;49.792;9.946;2023-05-10T04:26:48;14.50;99.90
13976;DHT22;7062;49.792;9.946;2023-05-10T04:29:14;14.40;99.90
13976;DHT22;7062;49.792;9.946;2023-05-10T04:31:39;14.40;99.90
13976;DHT22;7062;49.792;9.946;2023-05-10T04:34:05;14.40;99.90
13976;DHT22;7062;49.792;9.946;2023-05-10T04:36:31;14.40;99.90
13976;DHT22;7062;49.792;9.946;2023-05-10T04:38:58;14.40;99.90
13976;DHT22;7062;49.792;9.946;2023-05-10T04:41:23;14.40;99.90
13976;DHT22;7062;49.792;9.946;2023-05-10T04:43:50;14.50;99.90
13976;DHT22;7062;49.792;9.946;2023-05-10T04:46:16;14.50;99.90
13976;DHT22;7062;49.792;9.946;2023-05-10T04:48:42;14.40;99.90
13976;DHT22;7062;49.792;9.946;2023-05-10T04:51:07;14.40;99.90
13976;DHT22;7062;49.792;9.946;2023-05-10T04:53:33;14.40;99.90
13976;DHT22;7062;49.792;9.946;2023-05-10T04:55:58;14.40;99.90
13976;DHT22;7062;49.792;9.946;2023-05-10T04:58:24;14.40;99.90
13976;DHT22;7062;49.792;9.946;2023-05-10T05:00:50;14.40;99.90
13976;DHT22;7062;49.792;9.946;2023-05-10T05:03:16;14.50;99.90
13976;DHT22;7062;49.792;9.946;2023-05-10T05:05:41;14.60;99.90
13976;DHT22;7062;49.792;9.946;2023-05-10T05:08:07;14.70;99.90
13976;DHT22;7062;49.792;9.946;2023-05-10T05:10:32;14.70;99.90
13976;DHT22;7062;49.792;9.946;2023-05-10T05:12:58;14.60;99.90
13976;DHT22;7062;49.792;9.946;2023-05-10T05:15:24;14.70;99.90
13976;DHT22;7062;49.792;9.946;2023-05-10T05:17:49;14.70;99.90
13976;DHT22;7062;49.792;9.946;2023-05-10T05:20:15;14.70;99.90
13976;DHT22;7062;49.792;9.946;2023-05-10T05:22:41;14.90;99.90
13976;DHT22;7062;49.792;9.946;2023-05-10T05:25:06;14.90;99.90
13976;DHT22;7062;49.792;9.946;2023-05-10T05:27:32;14.80;99.90
13976;DHT22;7062;49.792;9.946;2023-05-10T05:29:58;14.90;99.90
13976;DHT22;7062;49.792;9.946;2023-05-10T05:32:24;14.80;99.90
13976;DHT22;7062;49.792;9.946;2023-05-10T05:34:50;15.00;99.90
13976;DHT22;7062;49.792;9.946;2023-05-10T05:37:17;15.00;99.90
13976;DHT22;7062;49.792;9.946;2023-05-10T05:39:43;15.10;99.90
13976;DHT22;7062;49.792;9.946;2023-05-10T05:42:10;15.10;99.90
13976;DHT22;7062;49.792;9.946;2023-05-10T05:44:36;15.10;99.90
13976;DHT22;7062;49.792;9.946;2023-05-10T05:47:01;15.10;99.90
13976;DHT22;7062;49.792;9.946;2023-05-10T05:49:27;15.20;99.90
13976;DHT22;7062;49.792;9.946;2023-05-10T05:51:53;15.30;99.90
13976;DHT22;7062;49.792;9.946;2023-05-10T05:54:19;15.40;99.90
13976;DHT22;7062;49.792;9.946;2023-05-10T05:56:45;15.40;99.90
13976;DHT22;7062;49.792;9.946;2023-05-10T05:59:11;15.50;99.90
13976;DHT22;7062;49.792;9.946;2023-05-10T06:01:37;15.50;99.90
13976;DHT22;7062;49.792;9.946;2023-05-10T06:04:02;15.50;99.90
13976;DHT22;7062;49.792;9.946;2023-05-10T06:06:28;15.60;99.90
13976;DHT22;7062;49.792;9.946;2023-05-10T06:08:54;15.50;99.90
13976;DHT22;7062;49.792;9.946;2023-05-10T06:11:20;15.40;99.90
13976;DHT22;7062;49.792;9.946;2023-05-10T06:13:46;15.30;99.90
13976;DHT22;7062;49.792;9.946;2023-05-10T06:16:12;15.60;99.90
13976;DHT22;7062;49.792;9.946;2023-05-10T06:18:39;15.60;99.90
13976;DHT22;7062;49.792;9.946;2023-05-10T06:21:04;15.60;99.90
13976;DHT22;7062;49.792;9.946;2023-05-10T06:23:30;15.60;99.90
13976;DHT22;7062;49.792;9.946;2023-05-10T06:25:55;15.50;99.90
13976;DHT22;7062;49.792;9.946;2023-05-10T06:28:21;15.60;99.90
13976;DHT22;7062;49.792;9.946;2023-05-10T06:30:47;15.70;99.90
13976;DHT22;7062;49.792;9.946;2023-05-10T06:33:13;15.80;99.90
13976;DHT22;7062;49.792;9.946;2023-05-10T06:35:38;15.80;99.90
13976;DHT22;7062;49.792;9.946;2023-05-10T06:38:04;15.90;99.90
13976;DHT22;7062;49.792;9.946;2023-05-10T06:40:30;15.70;99.90
13976;DHT22;7062;49.792;9.946;2023-05-10T06:42:56;15.80;99.90
13976;DHT22;7062;49.792;9.946;2023-05-10T06:45:21;15.80;99.90
13976;DHT22;7062;49.792;9.946;2023-05-10T06:47:47;16.10;99.90
13976;DHT22;7062;49.792;9.946;2023-05-10T06:50:13;16.10;99.90
13976;DHT22;7062;49.792;9.946;2023-05-10T06:52:39;16.30;99.90
13976;DHT22;7062;49.792;9.946;2023-05-10T06:55:05;16.30;99.90
13976;DHT22;7062;49.792;9.946;2023-05-10T06:57:31;16.10;99.90
13976;DHT22;7062;49.792;9.946;2023-05-10T07:00:01;16.20;99.90
13976;DHT22;7062;49.792;9.946;2023-05-10T07:02:26;16.20;99.90
13976;DHT22;7062;49.792;9.946;2023-05-10T07:04:52;16.20;99.90
13976;DHT22;7062;49.792;9.946;2023-05-10T07:07:18;16.30;99.90
13976;DHT22;7062;49.792;9.946;2023-05-10T07:09:44;16.10;99.90
13976;DHT22;7062;49.792;9.946;2023-05-10T07:12:10;16.80;99.90
13976;DHT22;7062;49.792;9.946;2023-05-10T07:14:36;16.20;99.90
13976;DHT22;7062;49.792;9.946;2023-05-10T07:17:01;16.30;99.90
13976;DHT22;7062;49.792;9.946;2023-05-10T07:19:27;16.30;99.90
13976;DHT22;7062;49.792;9.946;2023-05-10T07:21:54;16.30;99.90
13976;DHT22;7062;49.792;9.946;2023-05-10T07:24:20;16.10;99.90
13976;DHT22;7062;49.792;9.946;2023-05-10T07:26:46;16.10;99.90
13976;DHT22;7062;49.792;9.946;2023-05-10T07:29:12;16.00;99.90
13976;DHT22;7062;49.792;9.946;2023-05-10T07:31:37;16.00;99.90
13976;DHT22;7062;49.792;9.946;2023-05-10T07:34:03;15.90;99.90
13976;DHT22;7062;49.792;9.946;2023-05-10T07:36:29;15.90;99.90
13976;DHT22;7062;49.792;9.946;2023-05-10T07:38:54;15.90;99.90
13976;DHT22;7062;49.792;9.946;2023-05-10T07:41:20;16.00;99.90
13976;DHT22;7062;49.792;9.946;2023-05-10T07:43:46;16.00;99.90
13976;DHT22;7062;49.792;9.946;2023-05-10T07:46:12;15.90;99.90
13976;DHT22;7062;49.792;9.946;2023-05-10T07:48:37;16.10;99.90
13976;DHT22;7062;49.792;9.946;2023-05-10T07:51:03;16.10;99.90
13976;DHT22;7062;49.792;9.946;2023-05-10T07:53:29;16.10;99.90
13976;DHT22;7062;49.792;9.946;2023-05-10T07:55:57;16.20;99.90
13976;DHT22;7062;49.792;9.946;2023-05-10T07:58:24;16.20;99.90
13976;DHT22;7062;49.792;9.946;2023-05-10T08:00:49;16.30;99.90
13976;DHT22;7062;49.792;9.946;2023-05-10T08:03:15;16.30;99.90
13976;DHT22;7062;49.792;9.946;2023-05-10T08:05:41;16.40;99.90
13976;DHT22;7062;49.792;9.946;2023-05-10T08:08:07;16.60;99.90
13976;DHT22;7062;49.792;9.946;2023-05-10T08:10:32;16.90;99.90
13976;DHT22;7062;49.792;9.946;2023-05-10T08:12:58;17.00;99.90
13976;DHT22;7062;49.792;9.946;2023-05-10T08:15:24;17.00;99.90
13976;DHT22;7062;49.792;9.946;2023-05-10T08:17:51;17.10;99.90
13976;DHT22;7062;49.792;9.946;2023-05-10T08:20:17;17.20;99.90
13976;DHT22;7062;49.792;9.946;2023-05-10T08:22:45;17.20;99.90
13976;DHT22;7062;49.792;9.946;2023-05-10T08:25:11;17.10;99.90
13976;DHT22;7062;49.792;9.946;2023-05-10T08:27:36;17.30;99.90
13976;DHT22;7062;49.792;9.946;2023-05-10T08:30:02;17.50;99.90
13976;DHT22;7062;49.792;9.946;2023-05-10T08:32:28;17.50;99.90
13976;DHT22;7062;49.792;9.946;2023-05-10T08:34:53;17.30;99.90
13976;DHT22;7062;49.792;9.946;2023-05-10T08:37:19;17.50;99.90
13976;DHT22;7062;49.792;9.946;2023-05-10T08:39:45;17.90;99.90
13976;DHT22;7062;49.792;9.946;2023-05-10T08:42:16;18.10;99.90
13976;DHT22;7062;49.792;9.946;2023-05-10T08:44:45;18.20;99.90
13976;DHT22;7062;49.792;9.946;2023-05-10T08:47:15;18.20;99.90
13976;DHT22;7062;49.792;9.946;2023-05-10T08:49:41;18.00;99.90
13976;DHT22;7062;49.792;9.946;2023-05-10T08:52:10;17.50;99.90
13976;DHT22;7062;49.792;9.946;2023-05-10T08:54:36;17.20;99.90
13976;DHT22;7062;49.792;9.946;2023-05-10T08:57:03;17.00;99.90
13976;DHT22;7062;49.792;9.946;2023-05-10T08:59:29;16.90;99.90
13976;DHT22;7062;49.792;9.946;2023-05-10T09:01:57;17.00;99.90
13976;DHT22;7062;49.792;9.946;2023-05-10T09:04:24;16.90;99.90
13976;DHT22;7062;49.792;9.946;2023-05-10T09:06:50;16.90;99.90
13976;DHT22;7062;49.792;9.946;2023-05-10T09:09:17;16.90;99.90
13976;DHT22;7062;49.792;9.946;2023-05-10T09:11:43;16.80;99.90
13976;DHT22;7062;49.792;9.946;2023-05-10T09:14:09;16.70;99.90
13976;DHT22;7062;49.792;9.946;2023-05-10T09:16:36;16.80;99.90
13976;DHT22;7062;49.792;9.946;2023-05-10T09:19:01;16.80;99.90
13976;DHT22;7062;49.792;9.946;2023-05-10T09:21:28;16.70;99.90
13976;DHT22;7062;49.792;9.946;2023-05-10T09:23:53;16.80;99.90
13976;DHT22;7062;49.792;9.946;2023-05-10T09:26:23;16.80;99.90
13976;DHT22;7062;49.792;9.946;2023-05-10T09:28:57;16.90;99.90
13976;DHT22;7062;49.792;9.946;2023-05-10T09:31:23;17.10;99.90
13976;DHT22;7062;49.792;9.946;2023-05-10T09:33:51;17.10;99.90
13976;DHT22;7062;49.792;9.946;2023-05-10T09:36:17;17.20;99.90
13976;DHT22;7062;49.792;9.946;2023-05-10T09:38:51;17.20;99.90
13976;DHT22;7062;49.792;9.946;2023-05-10T09:41:20;17.10;99.90
13976;DHT22;7062;49.792;9.946;2023-05-10T09:43:46;17.10;99.90
13976;DHT22;7062;49.792;9.946;2023-05-10T09:46:12;17.00;99.90
13976;DHT22;7062;49.792;9.946;2023-05-10T09:48:43;17.10;99.90
13976;DHT22;7062;49.792;9.946;2023-05-10T09:51:09;17.40;99.90
13976;DHT22;7062;49.792;9.946;2023-05-10T09:53:34;17.70;99.90
13976;DHT22;7062;49.792;9.946;2023-05-10T09:56:00;18.20;99.90
13976;DHT22;7062;49.792;9.946;2023-05-10T09:58:26;18.80;99.90
13976;DHT22;7062;49.792;9.946;2023-05-10T10:00:52;19.50;99.90
13976;DHT22;7062;49.792;9.946;2023-05-10T10:03:20;20.10;99.90
13976;DHT22;7062;49.792;9.946;2023-05-10T10:05:47;20.70;99.90
13976;DHT22;7062;49.792;9.946;2023-05-10T10:08:14;21.90;99.90
13976;DHT22;7062;49.792;9.946;2023-05-10T10:10:40;22.40;99.90
13976;DHT22;7062;49.792;9.946;2023-05-10T10:13:07;21.90;99.90
13976;DHT22;7062;49.792;9.946;2023-05-10T10:15:34;21.30;99.90
13976;DHT22;7062;49.792;9.946;2023-05-10T10:18:00;21.20;99.90
13976;DHT22;7062;49.792;9.946;2023-05-10T10:20:26;21.30;99.90
13976;DHT22;7062;49.792;9.946;2023-05-10T10:22:52;21.10;99.90
13976;DHT22;7062;49.792;9.946;2023-05-10T10:25:19;21.20;99.90
13976;DHT22;7062;49.792;9.946;2023-05-10T10:30:43;21.50;99.90
13976;DHT22;7062;49.792;9.946;2023-05-10T10:35:58;20.80;99.90
13976;DHT22;7062;49.792;9.946;2023-05-10T10:38:24;20.00;99.90
13976;DHT22;7062;49.792;9.946;2023-05-10T10:41:02;19.60;99.90
13976;DHT22;7062;49.792;9.946;2023-05-10T10:43:28;19.80;99.90
13976;DHT22;7062;49.792;9.946;2023-05-10T10:48:35;19.90;99.90
13976;DHT22;7062;49.792;9.946;2023-05-10T10:51:01;19.60;99.90
13976;DHT22;7062;49.792;9.946;2023-05-10T10:53:28;19.40;99.90
13976;DHT22;7062;49.792;9.946;2023-05-10T10:56:08;19.60;99.90
13976;DHT22;7062;49.792;9.946;2023-05-10T10:58:35;20.00;99.90
13976;DHT22;7062;49.792;9.946;2023-05-10T11:01:19;20.30;99.90
13976;DHT22;7062;49.792;9.946;2023-05-10T11:06:30;20.60;99.90
13976;DHT22;7062;49.792;9.946;2023-05-10T11:09:05;20.70;99.90
13976;DHT22;7062;49.792;9.946;2023-05-10T11:11:31;19.90;99.90
13976;DHT22;7062;49.792;9.946;2023-05-10T11:14:03;19.80;99.90
13976;DHT22;7062;49.792;9.946;2023-05-10T11:16:41;19.80;99.90
13976;DHT22;7062;49.792;9.946;2023-05-10T11:19:10;19.80;99.90
13976;DHT22;7062;49.792;9.946;2023-05-10T11:21:51;19.70;99.90
13976;DHT22;7062;49.792;9.946;2023-05-10T11:24:36;19.90;99.90
13976;DHT22;7062;49.792;9.946;2023-05-10T11:27:02;20.80;99.90
13976;DHT22;7062;49.792;9.946;2023-05-10T11:29:27;21.70;99.90
13976;DHT22;7062;49.792;9.946;2023-05-10T11:31:59;22.10;99.90
13976;DHT22;7062;49.792;9.946;2023-05-10T11:34:30;21.50;99.90
13976;DHT22;7062;49.792;9.946;2023-05-10T11:36:57;21.60;99.90
13976;DHT22;7062;49.792;9.946;2023-05-10T11:39:30;22.00;99.90
13976;DHT22;7062;49.792;9.946;2023-05-10T11:41:56;22.20;99.90
13976;DHT22;7062;49.792;9.946;2023-05-10T11:44:23;21.70;99.90
13976;DHT22;7062;49.792;9.946;2023-05-10T11:46:49;21.90;99.90
13976;DHT22;7062;49.792;9.946;2023-05-10T11:49:15;22.20;99.90
13976;DHT22;7062;49.792;9.946;2023-05-10T11:51:40;22.30;99.90
13976;DHT22;7062;49.792;9.946;2023-05-10T11:54:09;22.90;99.90
13976;DHT22;7062;49.792;9.946;2023-05-10T11:56:39;23.20;99.90
13976;DHT22;7062;49.792;9.946;2023-05-10T11:59:05;22.70;99.90
13976;DHT22;7062;49.792;9.946;2023-05-10T12:01:31;22.80;99.90
13976;DHT22;7062;49.792;9.946;2023-05-10T12:03:58;22.80;99.90
13976;DHT22;7062;49.792;9.946;2023-05-10T12:06:30;23.10;99.90
13976;DHT22;7062;49.792;9.946;2023-05-10T12:08:56;23.20;99.90
13976;DHT22;7062;49.792;9.946;2023-05-10T12:11:25;22.70;99.90
13976;DHT22;7062;49.792;9.946;2023-05-10T12:13:51;22.80;99.90
13976;DHT22;7062;49.792;9.946;2023-05-10T12:16:19;22.40;99.90
13976;DHT22;7062;49.792;9.946;2023-05-10T12:18:48;22.20;99.90
13976;DHT22;7062;49.792;9.946;2023-05-10T12:21:15;21.60;99.90
13976;DHT22;7062;49.792;9.946;2023-05-10T12:23:41;21.70;99.90
13976;DHT22;7062;49.792;9.946;2023-05-10T12:26:09;22.00;99.90
13976;DHT22;7062;49.792;9.946;2023-05-10T12:28:36;22.10;99.90
13976;DHT22;7062;49.792;9.946;2023-05-10T12:31:02;22.40;99.90
13976;DHT22;7062;49.792;9.946;2023-05-10T12:33:39;23.00;99.90
13976;DHT22;7062;49.792;9.946;2023-05-10T12:36:09;22.80;99.90
13976;DHT22;7062;49.792;9.946;2023-05-10T12:38:36;22.20;99.90
13976;DHT22;7062;49.792;9.946;2023-05-10T12:41:07;21.80;99.90
13976;DHT22;7062;49.792;9.946;2023-05-10T12:43:34;22.10;99.90
13976;DHT22;7062;49.792;9.946;2023-05-10T12:46:14;21.70;99.90
13976;DHT22;7062;49.792;9.946;2023-05-10T12:48:41;21.10;99.90
13976;DHT22;7062;49.792;9.946;2023-05-10T12:51:08;19.90;99.90
13976;DHT22;7062;49.792;9.946;2023-05-10T12:53:35;19.00;99.90
13976;DHT22;7062;49.792;9.946;2023-05-10T12:56:01;18.40;99.90
13976;DHT22;7062;49.792;9.946;2023-05-10T12:58:27;18.00;99.90
13976;DHT22;7062;49.792;9.946;2023-05-10T13:00:52;17.40;99.90
13976;DHT22;7062;49.792;9.946;2023-05-10T13:03:18;16.90;99.90
13976;DHT22;7062;49.792;9.946;2023-05-10T13:05:44;16.70;99.90
13976;DHT22;7062;49.792;9.946;2023-05-10T13:08:10;16.50;99.90
13976;DHT22;7062;49.792;9.946;2023-05-10T13:10:36;16.50;99.90
13976;DHT22;7062;49.792;9.946;2023-05-10T13:13:01;16.60;99.90
13976;DHT22;7062;49.792;9.946;2023-05-10T13:15:27;16.50;99.90
13976;DHT22;7062;49.792;9.946;2023-05-10T13:17:54;16.60;99.90
13976;DHT22;7062;49.792;9.946;2023-05-10T13:20:19;16.50;99.90
13976;DHT22;7062;49.792;9.946;2023-05-10T13:22:45;16.40;99.90
13976;DHT22;7062;49.792;9.946;2023-05-10T13:25:11;16.20;99.90
13976;DHT22;7062;49.792;9.946;2023-05-10T13:27:41;16.10;99.90
13976;DHT22;7062;49.792;9.946;2023-05-10T13:30:08;16.00;99.90
13976;DHT22;7062;49.792;9.946;2023-05-10T13:32:33;16.10;99.90
13976;DHT22;7062;49.792;9.946;2023-05-10T13:34:59;16.10;99.90
13976;DHT22;7062;49.792;9.946;2023-05-10T13:37:25;16.10;99.90
13976;DHT22;7062;49.792;9.946;2023-05-10T13:39:51;16.30;99.90
13976;DHT22;7062;49.792;9.946;2023-05-10T13:42:17;16.60;99.90
13976;DHT22;7062;49.792;9.946;2023-05-10T13:44:43;16.80;99.90
13976;DHT22;7062;49.792;9.946;2023-05-10T13:47:09;16.80;99.90
13976;DHT22;7062;49.792;9.946;2023-05-10T13:49:35;16.70;99.90
13976;DHT22;7062;49.792;9.946;2023-05-10T13:52:01;16.50;99.90
13976;DHT22;7062;49.792;9.946;2023-05-10T13:54:32;16.40;99.90
13976;DHT22;7062;49.792;9.946;2023-05-10T13:56:58;16.30;99.90
13976;DHT22;7062;49.792;9.946;2023-05-10T13:59:24;16.40;99.90
13976;DHT22;7062;49.792;9.946;2023-05-10T14:01:50;16.50;99.90
13976;DHT22;7062;49.792;9.946;2023-05-10T14:04:15;16.60;99.90
13976;DHT22;7062;49.792;9.946;2023-05-10T14:06:41;16.50;99.90
13976;DHT22;7062;49.792;9.946;2023-05-10T14:09:07;16.40;99.90
13976;DHT22;7062;49.792;9.946;2023-05-10T14:11:32;16.30;99.90
13976;DHT22;7062;49.792;9.946;2023-05-10T14:13:58;16.40;99.90
13976;DHT22;7062;49.792;9.946;2023-05-10T14:16:23;16.40;99.90
13976;DHT22;7062;49.792;9.946;2023-05-10T14:18:49;16.60;99.90
13976;DHT22;7062;49.792;9.946;2023-05-10T14:21:15;16.60;99.90
13976;DHT22;7062;49.792;9.946;2023-05-10T14:23:40;16.50;99.90
13976;DHT22;7062;49.792;9.946;2023-05-10T14:26:06;16.40;99.90
13976;DHT22;7062;49.792;9.946;2023-05-10T14:28:32;16.60;99.90
13976;DHT22;7062;49.792;9.946;2023-05-10T14:30:58;16.50;99.90
13976;DHT22;7062;49.792;9.946;2023-05-10T14:33:24;16.50;99.90
13976;DHT22;7062;49.792;9.946;2023-05-10T14:35:50;16.70;99.90
13976;DHT22;7062;49.792;9.946;2023-05-10T14:38:16;16.70;99.90
13976;DHT22;7062;49.792;9.946;2023-05-10T14:40:41;16.80;99.90
13976;DHT22;7062;49.792;9.946;2023-05-10T14:43:08;17.00;99.90
13976;DHT22;7062;49.792;9.946;2023-05-10T14:45:34;17.00;99.90
13976;DHT22;7062;49.792;9.946;2023-05-10T14:48:00;17.10;99.90
13976;DHT22;7062;49.792;9.946;2023-05-10T14:50:26;17.30;99.90
13976;DHT22;7062;49.792;9.946;2023-05-10T14:52:52;17.30;99.90
13976;DHT22;7062;49.792;9.946;2023-05-10T14:55:17;17.20;99.90
13976;DHT22;7062;49.792;9.946;2023-05-10T14:57:43;17.20;99.90
13976;DHT22;7062;49.792;9.946;2023-05-10T15:00:10;17.10;99.90
13976;DHT22;7062;49.792;9.946;2023-05-10T15:02:35;17.20;99.90
13976;DHT22;7062;49.792;9.946;2023-05-10T15:05:01;17.20;99.90
13976;DHT22;7062;49.792;9.946;2023-05-10T15:07:27;17.00;99.90
13976;DHT22;7062;49.792;9.946;2023-05-10T15:09:53;16.90;99.90
13976;DHT22;7062;49.792;9.946;2023-05-10T15:12:19;17.00;99.90
13976;DHT22;7062;49.792;9.946;2023-05-10T15:14:45;17.10;99.90
13976;DHT22;7062;49.792;9.946;2023-05-10T15:17:10;17.10;99.90
13976;DHT22;7062;49.792;9.946;2023-05-10T15:19:36;17.10;99.90
13976;DHT22;7062;49.792;9.946;2023-05-10T15:22:03;17.00;99.90
13976;DHT22;7062;49.792;9.946;2023-05-10T15:24:29;17.10;99.90
13976;DHT22;7062;49.792;9.946;2023-05-10T15:26:55;17.10;99.90
13976;DHT22;7062;49.792;9.946;2023-05-10T15:29:20;17.10;99.90
13976;DHT22;7062;49.792;9.946;2023-05-10T15:31:49;17.20;99.90
13976;DHT22;7062;49.792;9.946;2023-05-10T15:34:16;17.20;99.90
13976;DHT22;7062;49.792;9.946;2023-05-10T15:36:43;17.20;99.90
13976;DHT22;7062;49.792;9.946;2023-05-10T15:39:09;17.30;99.90
13976;DHT22;7062;49.792;9.946;2023-05-10T15:41:35;17.20;99.90
13976;DHT22;7062;49.792;9.946;2023-05-10T15:44:01;17.20;99.90
13976;DHT22;7062;49.792;9.946;2023-05-10T15:46:30;17.20;99.90
13976;DHT22;7062;49.792;9.946;2023-05-10T15:48:56;17.20;99.90
13976;DHT22;7062;49.792;9.946;2023-05-10T15:51:22;17.30;99.90
13976;DHT22;7062;49.792;9.946;2023-05-10T15:53:48;17.40;99.90
13976;DHT22;7062;49.792;9.946;2023-05-10T15:56:13;17.50;99.90
13976;DHT22;7062;49.792;9.946;2023-05-10T15:58:40;17.60;99.90
13976;DHT22;7062;49.792;9.946;2023-05-10T16:01:06;17.70;99.90
13976;DHT22;7062;49.792;9.946;2023-05-10T16:03:32;17.60;99.90
13976;DHT22;7062;49.792;9.946;2023-05-10T16:05:58;17.60;99.90
13976;DHT22;7062;49.792;9.946;2023-05-10T16:08:24;17.50;99.90
13976;DHT22;7062;49.792;9.946;2023-05-10T16:10:50;17.50;99.90
13976;DHT22;7062;49.792;9.946;2023-05-10T16:13:16;17.60;99.90